createdAt,value
2022-08-28T00:01:19.878Z,78.5
2022-08-28T00:02:26.379Z,78
2022-08-28T00:03:32.914Z,78
2022-08-28T00:04:39.446Z,78
2022-08-28T00:05:45.981Z,78
2022-08-28T00:06:52.515Z,78.5
2022-08-28T00:07:59.055Z,78
2022-08-28T00:09:05.591Z,78
2022-08-28T00:10:12.126Z,78
2022-08-28T00:11:18.661Z,77.5
2022-08-28T00:12:25.200Z,78
2022-08-28T00:13:31.740Z,77.5
2022-08-28T00:14:38.281Z,77.5
2022-08-28T00:15:44.817Z,77.5
2022-08-28T00:16:51.367Z,78
2022-08-28T00:17:57.890Z,78
2022-08-28T00:19:04.537Z,78
2022-08-28T00:20:10.955Z,77.5
2022-08-28T00:21:17.496Z,77.5
2022-08-28T00:22:24.034Z,77.5
2022-08-28T00:23:30.571Z,78
2022-08-28T00:24:37.103Z,78
2022-08-28T00:25:43.641Z,78
2022-08-28T00:26:50.175Z,78
2022-08-28T00:27:56.716Z,77.5
2022-08-28T00:29:03.492Z,77.5
2022-08-28T00:30:10.272Z,77.5
2022-08-28T00:31:17.051Z,77.5
2022-08-28T00:32:23.827Z,77.5
2022-08-28T00:33:30.617Z,77.5
2022-08-28T00:34:37.398Z,77.5
2022-08-28T00:35:44.170Z,77.5
2022-08-28T00:36:50.951Z,77.5
2022-08-28T00:37:57.730Z,77.5
2022-08-28T00:39:04.515Z,77.5
2022-08-28T00:40:11.292Z,77.5
2022-08-28T00:41:18.067Z,77.5
2022-08-28T00:42:24.848Z,77.5
2022-08-28T00:43:32.138Z,77.5
2022-08-28T00:45:10.880Z,77.5
2022-08-28T00:46:49.639Z,77.5
2022-08-28T00:48:28.387Z,77.5
2022-08-28T00:50:07.084Z,77.5
2022-08-28T00:51:45.846Z,78
2022-08-28T00:53:24.615Z,78
2022-08-28T00:55:03.339Z,78
2022-08-28T00:56:42.089Z,78
2022-08-28T00:58:20.837Z,78
2022-08-28T00:59:59.577Z,78.5
2022-08-28T01:01:38.333Z,78
2022-08-28T01:03:17.080Z,78
2022-08-28T01:07:25.131Z,78
2022-08-28T01:08:31.569Z,78
2022-08-28T01:10:40.721Z,78.5
2022-08-28T01:11:47.131Z,78.5
2022-08-28T01:12:53.541Z,78.5
2022-08-28T01:13:59.967Z,78.5
2022-08-28T01:15:06.379Z,79
2022-08-28T01:16:12.798Z,79
2022-08-28T01:17:19.219Z,79
2022-08-28T01:18:25.627Z,79.5
2022-08-28T01:19:32.031Z,79.5
2022-08-28T01:20:38.461Z,79.5
2022-08-28T01:21:44.863Z,79
2022-08-28T01:22:51.275Z,79.5
2022-08-28T01:23:57.698Z,79.5
2022-08-28T01:25:04.128Z,80
2022-08-28T01:26:10.532Z,80
2022-08-28T01:27:16.945Z,79.5
2022-08-28T01:28:23.349Z,80
2022-08-28T01:29:29.761Z,79.5
2022-08-28T01:30:36.176Z,80
2022-08-28T01:31:42.588Z,80
2022-08-28T01:32:49.007Z,80
2022-08-28T01:33:55.416Z,80
2022-08-28T01:35:01.829Z,80
2022-08-28T01:36:08.246Z,80.5
2022-08-28T01:37:14.784Z,80.5
2022-08-28T01:38:21.309Z,80.5
2022-08-28T01:39:27.833Z,80.5
2022-08-28T01:40:34.352Z,81
2022-08-28T01:41:40.895Z,81.5
2022-08-28T01:42:47.429Z,81
2022-08-28T01:43:53.975Z,81.5
2022-08-28T01:45:00.508Z,82
2022-08-28T01:46:07.045Z,82
2022-08-28T01:47:13.587Z,82
2022-08-28T01:48:20.135Z,82.5
2022-08-28T01:49:26.668Z,82.5
2022-08-28T01:50:33.206Z,82.5
2022-08-28T01:52:05.668Z,82.5
2022-08-28T01:53:12.424Z,83
2022-08-28T01:54:19.246Z,83
2022-08-28T01:55:26.059Z,83
2022-08-28T01:56:32.842Z,82.5
2022-08-28T01:57:39.614Z,82
2022-08-28T01:58:46.403Z,82
2022-08-28T01:59:53.181Z,82.5
2022-08-28T02:00:59.963Z,82.5
2022-08-28T02:02:06.753Z,82.5
2022-08-28T02:03:13.535Z,82
2022-08-28T02:04:20.307Z,82
2022-08-28T02:05:27.093Z,82.5
2022-08-28T02:08:45.252Z,82
2022-08-28T02:10:23.995Z,82
2022-08-28T02:12:02.767Z,82.5
2022-08-28T02:13:10.004Z,83
2022-08-28T02:14:17.260Z,83
2022-08-28T02:15:56.009Z,83.5
2022-08-28T02:17:34.758Z,84
2022-08-28T02:19:13.500Z,84.5
2022-08-28T02:20:52.251Z,84
2022-08-28T02:22:30.975Z,84.5
2022-08-28T02:24:09.680Z,84.5
2022-08-28T02:25:48.396Z,84.5
2022-08-28T02:27:27.149Z,84
2022-08-28T02:29:38.021Z,84.5
2022-08-28T02:31:35.177Z,84.5
2022-08-28T02:34:50.737Z,85
2022-08-28T02:35:57.163Z,85
2022-08-28T02:37:03.579Z,85
2022-08-28T02:38:09.988Z,85.5
2022-08-28T02:39:16.395Z,85.5
2022-08-28T02:40:22.803Z,85.5
2022-08-28T02:41:29.223Z,85.5
2022-08-28T02:42:35.628Z,85.5
2022-08-28T02:43:42.038Z,85
2022-08-28T02:44:48.451Z,85
2022-08-28T02:45:54.861Z,85
2022-08-28T02:47:01.267Z,85.5
2022-08-28T02:48:07.678Z,85
2022-08-28T02:49:14.086Z,85.5
2022-08-28T02:50:20.499Z,85.5
2022-08-28T02:51:26.912Z,85.5
2022-08-28T02:52:33.335Z,85.5
2022-08-28T02:53:39.753Z,85.5
2022-08-28T02:54:46.173Z,85.5
2022-08-28T02:55:52.596Z,86
2022-08-28T02:56:59.014Z,85
2022-08-28T02:58:05.444Z,85.5
2022-08-28T02:59:11.862Z,86
2022-08-28T03:00:18.282Z,86
2022-08-28T03:01:24.700Z,86.5
2022-08-28T03:02:31.242Z,86.5
2022-08-28T03:03:37.722Z,87
2022-08-28T03:04:44.203Z,87.5
2022-08-28T03:05:50.689Z,87
2022-08-28T03:06:57.179Z,87.5
2022-08-28T03:08:03.673Z,87.5
2022-08-28T03:09:10.157Z,87
2022-08-28T03:10:16.641Z,86.5
2022-08-28T03:11:23.117Z,87
2022-08-28T03:12:29.615Z,87
2022-08-28T03:13:36.091Z,87
2022-08-28T03:14:42.571Z,87
2022-08-28T03:15:49.058Z,87
2022-08-28T03:17:38.363Z,87
2022-08-28T03:18:45.070Z,87
2022-08-28T03:19:51.801Z,87.5
2022-08-28T03:20:58.526Z,86.5
2022-08-28T03:22:05.254Z,87.5
2022-08-28T03:23:11.987Z,87.5
2022-08-28T03:24:18.715Z,87.5
2022-08-28T03:25:25.444Z,87.5
2022-08-28T03:26:32.183Z,87.5
2022-08-28T03:27:38.915Z,87.5
2022-08-28T03:28:45.651Z,87.5
2022-08-28T03:29:52.385Z,87.5
2022-08-28T03:30:59.118Z,88
2022-08-28T03:34:17.276Z,87.5
2022-08-28T03:35:56.004Z,87
2022-08-28T03:37:03.215Z,86.5
2022-08-28T03:38:10.425Z,86.5
2022-08-28T03:39:49.145Z,86.5
2022-08-28T03:41:27.866Z,86.5
2022-08-28T03:43:06.595Z,86.5
2022-08-28T03:44:45.315Z,86.5
2022-08-28T03:46:24.049Z,87
2022-08-28T03:48:02.771Z,87
2022-08-28T03:49:41.486Z,86.5
2022-08-28T03:51:20.208Z,86.5
2022-08-28T03:52:58.936Z,87
2022-08-28T03:54:38.686Z,87
2022-08-28T03:57:56.099Z,87.5
2022-08-28T04:01:13.550Z,88.5
2022-08-28T04:04:30.952Z,89.5
2022-08-28T04:07:46.510Z,89.5
2022-08-28T04:08:52.870Z,89.5
2022-08-28T04:09:59.229Z,90
2022-08-28T04:11:05.585Z,90
2022-08-28T04:12:11.952Z,90
2022-08-28T04:13:18.313Z,90
2022-08-28T04:14:24.680Z,90.5
2022-08-28T04:15:31.047Z,90
2022-08-28T04:16:37.405Z,90
2022-08-28T04:17:43.771Z,90.5
2022-08-28T04:18:50.124Z,90.5
2022-08-28T04:19:56.496Z,90.5
2022-08-28T04:21:02.849Z,90.5
2022-08-28T04:22:09.218Z,90.5
2022-08-28T04:24:21.969Z,91.5
2022-08-28T04:25:28.367Z,91.5
2022-08-28T04:26:34.748Z,91.5
2022-08-28T04:27:41.143Z,92
2022-08-28T04:28:47.521Z,91.5
2022-08-28T04:29:53.910Z,91.5
2022-08-28T04:31:00.306Z,91.5
2022-08-28T04:32:06.706Z,91.5
2022-08-28T04:33:13.105Z,91.5
2022-08-28T04:34:19.511Z,91.5
2022-08-28T04:35:26.045Z,91
2022-08-28T04:36:32.569Z,91
2022-08-28T04:37:39.088Z,91
2022-08-28T04:38:45.620Z,90.5
2022-08-28T04:39:52.124Z,91
2022-08-28T04:40:58.641Z,91.5
2022-08-28T04:42:05.163Z,91
2022-08-28T04:43:11.686Z,92
2022-08-28T04:44:18.218Z,92
2022-08-28T04:45:24.759Z,92
2022-08-28T04:46:31.265Z,92
2022-08-28T04:47:37.780Z,92.5
2022-08-28T04:48:44.296Z,92.5
2022-08-28T04:50:33.614Z,92.5
2022-08-28T04:51:40.359Z,93
2022-08-28T04:52:47.102Z,93
2022-08-28T04:53:53.848Z,93
2022-08-28T04:55:00.606Z,93
2022-08-28T04:56:07.362Z,93.5
2022-08-28T04:57:14.144Z,93.5
2022-08-28T04:58:20.869Z,93.5
2022-08-28T04:59:27.636Z,93.5
2022-08-28T05:00:34.392Z,93.5
2022-08-28T05:01:41.145Z,93.5
2022-08-28T05:02:47.927Z,93.5
2022-08-28T05:03:54.690Z,93.5
2022-08-28T05:07:12.819Z,93.5
2022-08-28T05:08:51.522Z,92.5
2022-08-28T05:09:58.780Z,92.5
2022-08-28T05:11:06.037Z,92.5
2022-08-28T05:12:44.750Z,92.5
2022-08-28T05:14:23.472Z,92.5
2022-08-28T05:16:02.197Z,92
2022-08-28T05:17:40.929Z,91
2022-08-28T05:19:19.663Z,90.5
2022-08-28T05:20:58.394Z,91
2022-08-28T05:22:37.099Z,91
2022-08-28T05:24:15.816Z,90.5
2022-08-28T05:25:54.540Z,90.5
2022-08-28T05:27:34.272Z,90.5
2022-08-28T05:30:51.694Z,90.5
2022-08-28T05:34:07.276Z,89.5
2022-08-28T05:35:13.692Z,89.5
2022-08-28T05:36:20.106Z,89.5
2022-08-28T05:37:26.509Z,89
2022-08-28T05:38:32.903Z,89
2022-08-28T05:39:39.321Z,89
2022-08-28T05:40:45.727Z,89
2022-08-28T05:41:52.145Z,89
2022-08-28T05:42:58.552Z,89.5
2022-08-28T05:44:04.975Z,89.5
2022-08-28T05:45:11.370Z,89
2022-08-28T05:46:17.769Z,89
2022-08-28T05:47:24.167Z,88.5
2022-08-28T05:48:30.569Z,88.5
2022-08-28T05:49:36.984Z,88
2022-08-28T05:50:43.394Z,88.5
2022-08-28T05:51:49.795Z,88
2022-08-28T05:52:56.197Z,88
2022-08-28T05:54:02.611Z,88
2022-08-28T05:55:09.074Z,88.5
2022-08-28T05:56:15.523Z,88.5
2022-08-28T05:57:21.920Z,88.5
2022-08-28T05:58:28.332Z,88
2022-08-28T05:59:34.731Z,88
2022-08-28T06:00:41.132Z,87.5
2022-08-28T06:01:47.686Z,87
2022-08-28T06:02:54.214Z,87
2022-08-28T06:04:00.752Z,86.5
2022-08-28T06:05:07.253Z,86.5
2022-08-28T06:06:13.751Z,86
2022-08-28T06:07:20.264Z,86
2022-08-28T06:08:26.776Z,86
2022-08-28T06:09:33.294Z,85.5
2022-08-28T06:10:39.818Z,85.5
2022-08-28T06:11:46.337Z,85.5
2022-08-28T06:12:52.862Z,85.5
2022-08-28T06:13:59.372Z,85.5
2022-08-28T06:15:05.901Z,85
2022-08-28T06:16:55.237Z,85.5
2022-08-28T06:18:01.995Z,85
2022-08-28T06:19:08.748Z,85
2022-08-28T06:20:15.506Z,85
2022-08-28T06:21:22.263Z,85
2022-08-28T06:22:29.025Z,84.5
2022-08-28T06:23:35.779Z,84.5
2022-08-28T06:24:42.553Z,84.5
2022-08-28T06:25:49.299Z,84
2022-08-28T06:26:56.076Z,83.5
2022-08-28T06:28:02.828Z,83.5
2022-08-28T06:29:09.593Z,83.5
2022-08-28T06:30:16.351Z,83
2022-08-28T06:33:34.476Z,83
2022-08-28T06:35:13.199Z,82.5
2022-08-28T06:36:20.432Z,82.5
2022-08-28T06:37:27.677Z,82.5
2022-08-28T06:39:06.417Z,82
2022-08-28T06:40:45.147Z,81.5
2022-08-28T06:42:23.883Z,81.5
2022-08-28T06:44:02.622Z,81.5
2022-08-28T06:45:41.362Z,80
2022-08-28T06:47:20.105Z,79.5
2022-08-28T06:48:58.857Z,79.5
2022-08-28T06:50:37.597Z,79
2022-08-28T06:52:16.327Z,78.5
2022-08-28T06:53:56.067Z,77.5
2022-08-28T06:57:11.765Z,77.5
2022-08-28T06:58:18.288Z,77
2022-08-28T06:59:24.790Z,78.5
2022-08-28T07:00:31.310Z,77.5
2022-08-28T07:01:37.809Z,77.5
2022-08-28T07:02:44.325Z,78
2022-08-28T07:03:50.834Z,78.5
2022-08-28T07:04:57.350Z,79
2022-08-28T07:06:03.867Z,77.5
2022-08-28T07:07:10.388Z,78
2022-08-28T07:08:16.915Z,78
2022-08-28T07:09:23.447Z,78
2022-08-28T07:10:29.956Z,77.5
2022-08-28T07:11:36.474Z,78
2022-08-28T07:12:42.988Z,77.5
2022-08-28T07:13:49.508Z,78
2022-08-28T07:14:56.028Z,77.5
2022-08-28T07:16:02.541Z,77.5
2022-08-28T07:17:09.060Z,77.5
2022-08-28T07:18:15.583Z,77
2022-08-28T07:19:22.094Z,77
2022-08-28T07:20:28.614Z,77.5
2022-08-28T07:21:35.128Z,76
2022-08-28T07:22:41.646Z,76
2022-08-28T07:23:48.172Z,75.5
2022-08-28T07:24:54.932Z,75
2022-08-28T07:26:01.701Z,75
2022-08-28T07:27:08.471Z,74.5
2022-08-28T07:28:15.227Z,75.5
2022-08-28T07:29:21.980Z,75.5
2022-08-28T07:30:28.744Z,75.5
2022-08-28T07:31:35.495Z,74.5
2022-08-28T07:32:42.274Z,74
2022-08-28T07:33:49.042Z,75
2022-08-28T07:34:55.782Z,73.5
2022-08-28T07:36:02.547Z,73
2022-08-28T07:37:09.325Z,73.5
2022-08-28T07:38:16.082Z,73
2022-08-28T07:40:55.206Z,72.5
2022-08-28T07:42:33.910Z,72.5
2022-08-28T07:44:12.618Z,71
2022-08-28T07:45:51.338Z,72
2022-08-28T07:46:58.569Z,70.5
2022-08-28T07:48:05.811Z,68.5
2022-08-28T07:49:44.509Z,66.5
2022-08-28T07:51:23.215Z,63
2022-08-28T07:53:01.943Z,60.5
2022-08-28T07:54:40.629Z,56
2022-08-28T07:56:19.374Z,54
2022-08-28T07:57:58.125Z,54
2022-08-28T07:59:36.857Z,53.5
2022-08-28T08:03:26.593Z,56
2022-08-28T08:04:34.787Z,55
2022-08-28T08:07:52.197Z,53.5
2022-08-28T08:11:09.607Z,52
2022-08-28T08:14:27.030Z,50.5
2022-08-28T08:17:42.603Z,55
2022-08-28T08:18:48.992Z,0
2022-08-28T08:19:55.441Z,0
2022-08-28T08:21:01.839Z,0
2022-08-28T08:22:08.234Z,52
2022-08-28T08:23:14.644Z,0
2022-08-28T08:24:21.059Z,0
2022-08-28T08:25:27.486Z,48.5
2022-08-28T08:26:33.892Z,48
2022-08-28T08:27:40.275Z,48
2022-08-28T08:28:46.649Z,46.5
2022-08-28T08:29:53.080Z,0
2022-08-28T08:30:59.450Z,47
2022-08-28T08:32:05.891Z,49.5
2022-08-28T08:33:12.291Z,49
2022-08-28T08:34:18.695Z,46
2022-08-28T08:35:25.101Z,99.5
2022-08-28T08:36:31.493Z,0
2022-08-28T08:37:37.919Z,0
2022-08-28T08:38:44.299Z,0
2022-08-28T08:39:50.681Z,46
2022-08-28T08:40:57.088Z,49.5
2022-08-28T08:42:03.468Z,0
2022-08-28T08:43:09.904Z,0
2022-08-28T08:44:16.320Z,0
2022-08-28T08:45:22.837Z,0
2022-08-28T08:46:29.385Z,0
2022-08-28T08:47:35.932Z,0
2022-08-28T08:48:42.457Z,0
2022-08-28T08:49:48.995Z,47
2022-08-28T08:50:55.520Z,47.5
2022-08-28T08:52:02.046Z,45
2022-08-28T08:53:08.568Z,44
2022-08-28T08:54:15.080Z,43.5
2022-08-28T08:55:21.599Z,45
2022-08-28T08:56:28.137Z,0
2022-08-28T08:57:34.690Z,0
2022-08-28T08:58:41.205Z,0
2022-08-28T09:00:15.064Z,47
2022-08-28T09:01:21.828Z,46
2022-08-28T09:02:28.606Z,0
2022-08-28T09:03:35.365Z,45
2022-08-28T09:04:42.107Z,0
2022-08-28T09:05:48.891Z,0
2022-08-28T09:06:55.659Z,50.5
2022-08-28T09:08:02.450Z,0
2022-08-28T09:09:09.216Z,0
2022-08-28T09:10:16.028Z,0
2022-08-28T09:11:22.812Z,0
2022-08-28T09:12:29.568Z,0
2022-08-28T09:13:36.299Z,0
2022-08-28T09:16:54.488Z,0
2022-08-28T09:18:33.223Z,0
2022-08-28T09:20:11.951Z,0
2022-08-28T09:21:19.196Z,0
2022-08-28T09:22:26.434Z,0
2022-08-28T09:24:05.147Z,0
2022-08-28T09:25:43.893Z,0
2022-08-28T09:27:22.623Z,0
2022-08-28T09:29:01.357Z,49.5
2022-08-28T09:30:40.082Z,0
2022-08-28T09:32:17.993Z,0
2022-08-28T09:33:24.407Z,0
2022-08-28T09:34:30.858Z,47.5
2022-08-28T09:35:37.309Z,45.5
2022-08-28T09:36:43.739Z,0
2022-08-28T09:37:50.117Z,0
2022-08-28T09:38:56.533Z,0
2022-08-28T09:40:02.970Z,0
2022-08-28T09:41:09.354Z,43.5
2022-08-28T09:42:15.772Z,0
2022-08-28T09:43:22.168Z,0
2022-08-28T09:44:28.568Z,0
2022-08-28T09:45:34.977Z,0
2022-08-28T09:46:41.369Z,0
2022-08-28T09:47:47.772Z,0
2022-08-28T09:48:54.173Z,0
2022-08-28T09:50:00.582Z,0
2022-08-28T09:51:06.975Z,0
2022-08-28T09:52:13.384Z,39.5
2022-08-28T09:53:19.780Z,0
2022-08-28T09:54:26.194Z,0
2022-08-28T09:55:32.591Z,0
2022-08-28T09:56:39.017Z,39.5
2022-08-28T09:57:45.437Z,0
2022-08-28T09:58:51.858Z,0
2022-08-28T09:59:58.388Z,0
2022-08-28T10:01:04.910Z,0
2022-08-28T10:02:11.419Z,41.5
2022-08-28T10:03:17.948Z,40
2022-08-28T10:04:24.506Z,0
2022-08-28T10:05:30.965Z,0
2022-08-28T10:06:37.444Z,0
2022-08-28T10:07:43.975Z,0
2022-08-28T10:08:50.483Z,43
2022-08-28T10:09:56.993Z,0
2022-08-28T10:11:03.572Z,0
2022-08-28T10:12:10.050Z,0
2022-08-28T10:13:16.566Z,46
2022-08-28T10:14:48.884Z,0
2022-08-28T10:15:55.709Z,0
2022-08-28T10:17:02.464Z,0
2022-08-28T10:18:09.245Z,0
2022-08-28T10:19:15.999Z,99.5
2022-08-28T10:20:22.732Z,50.5
2022-08-28T10:21:29.497Z,0
2022-08-28T10:22:36.291Z,0
2022-08-28T10:23:43.077Z,0
2022-08-28T10:24:49.780Z,50.5
2022-08-28T10:25:56.593Z,51.5
2022-08-28T10:27:03.385Z,49.5
2022-08-28T10:28:10.158Z,52
2022-08-28T10:31:28.289Z,0
2022-08-28T10:33:07.009Z,0
2022-08-28T10:34:44.981Z,48
2022-08-28T10:35:51.462Z,47
2022-08-28T10:36:57.940Z,0
2022-08-28T10:38:04.457Z,0
2022-08-28T10:39:11.027Z,0
2022-08-28T10:40:17.584Z,0
2022-08-28T10:41:24.130Z,0
2022-08-28T10:42:30.652Z,99.5
2022-08-28T10:43:37.198Z,45.5
2022-08-28T10:44:43.710Z,0
2022-08-28T10:45:50.201Z,0
2022-08-28T10:46:56.726Z,39
2022-08-28T10:48:03.287Z,39
2022-08-28T10:49:09.786Z,37
2022-08-28T10:50:16.319Z,40
2022-08-28T10:51:22.873Z,39.5
2022-08-28T10:52:29.424Z,40
2022-08-28T10:53:35.948Z,41
2022-08-28T10:54:42.500Z,41.5
2022-08-28T10:55:49.042Z,42.5
2022-08-28T10:56:55.547Z,43
2022-08-28T10:58:02.095Z,41.5
2022-08-28T10:59:08.619Z,41.5
2022-08-28T11:00:15.153Z,41
2022-08-28T11:01:21.699Z,40.5
2022-08-28T11:02:28.471Z,38.5
2022-08-28T11:03:35.256Z,41.5
2022-08-28T11:04:42.038Z,42.5
2022-08-28T11:05:48.780Z,0
2022-08-28T11:06:55.554Z,41
2022-08-28T11:08:02.290Z,39.5
2022-08-28T11:09:09.074Z,39.5
2022-08-28T11:10:15.843Z,38
2022-08-28T11:11:22.627Z,37
2022-08-28T11:12:29.391Z,0
2022-08-28T11:13:36.145Z,36.5
2022-08-28T11:14:42.932Z,37
2022-08-28T11:15:49.715Z,37.5
2022-08-28T11:19:07.892Z,0
2022-08-28T11:20:46.636Z,35.5
2022-08-28T11:21:53.877Z,0
2022-08-28T11:23:01.106Z,0
2022-08-28T11:24:39.868Z,0
2022-08-28T11:26:17.716Z,0
2022-08-28T11:27:24.094Z,0
2022-08-28T11:28:30.508Z,0
2022-08-28T11:29:36.915Z,0
2022-08-28T11:30:43.337Z,0
2022-08-28T11:31:49.750Z,0
2022-08-28T11:32:56.122Z,0
2022-08-28T11:34:02.500Z,44
2022-08-28T11:35:08.891Z,40
2022-08-28T11:36:15.281Z,38
2022-08-28T11:37:21.673Z,0
2022-08-28T11:38:28.079Z,39
2022-08-28T11:39:34.451Z,0
2022-08-28T11:40:40.868Z,0
2022-08-28T11:41:47.266Z,34
2022-08-28T11:42:53.654Z,0
2022-08-28T11:44:00.061Z,0
2022-08-28T11:45:06.471Z,0
2022-08-28T11:46:12.908Z,99.5
2022-08-28T11:47:19.323Z,0
2022-08-28T11:48:25.725Z,0
2022-08-28T11:49:32.135Z,0
2022-08-28T11:50:38.501Z,39.5
2022-08-28T11:51:44.900Z,40
2022-08-28T11:52:51.318Z,0
2022-08-28T11:53:57.884Z,0
2022-08-28T11:55:04.451Z,0
2022-08-28T11:56:10.975Z,0
2022-08-28T11:57:17.485Z,0
2022-08-28T11:58:23.961Z,38
2022-08-28T11:59:30.462Z,37
2022-08-28T12:00:36.988Z,0
2022-08-28T12:01:43.458Z,0
2022-08-28T12:02:50.009Z,0
2022-08-28T12:03:56.539Z,0
2022-08-28T12:05:03.091Z,0
2022-08-28T12:06:09.610Z,0
2022-08-28T12:07:16.105Z,33.5
2022-08-28T12:08:50.055Z,0
2022-08-28T12:09:56.815Z,33.5
2022-08-28T12:11:03.571Z,0
2022-08-28T12:12:10.308Z,38
2022-08-28T12:13:17.057Z,38
2022-08-28T12:14:23.834Z,0
2022-08-28T12:15:30.605Z,0
2022-08-28T12:16:37.326Z,41
2022-08-28T12:17:44.118Z,42
2022-08-28T12:18:50.875Z,39
2022-08-28T12:19:57.619Z,39.5
2022-08-28T12:21:04.352Z,41
2022-08-28T12:22:11.113Z,42.5
2022-08-28T12:25:29.255Z,43
2022-08-28T12:27:07.963Z,0
2022-08-28T12:28:46.718Z,37.5
2022-08-28T12:29:53.917Z,38
2022-08-28T12:31:01.200Z,37
2022-08-28T12:32:39.932Z,0
2022-08-28T12:34:17.802Z,0
2022-08-28T12:35:24.198Z,0
2022-08-28T12:36:30.567Z,0
2022-08-28T12:37:36.981Z,0
2022-08-28T12:38:43.383Z,0
2022-08-28T12:39:49.830Z,41
2022-08-28T12:40:56.183Z,0
2022-08-28T12:42:02.591Z,45
2022-08-28T12:43:09.018Z,45
2022-08-28T12:44:15.395Z,0
2022-08-28T12:45:21.827Z,45
2022-08-28T12:46:28.251Z,0
2022-08-28T12:47:34.680Z,0
2022-08-28T12:48:41.061Z,39.5
2022-08-28T12:49:47.482Z,0
2022-08-28T12:50:53.875Z,37
2022-08-28T12:52:00.308Z,36.5
2022-08-28T12:53:06.707Z,0
2022-08-28T12:54:13.126Z,0
2022-08-28T12:55:19.556Z,0
2022-08-28T12:56:25.972Z,0
2022-08-28T12:57:32.358Z,0
2022-08-28T12:58:38.740Z,33.5
2022-08-28T12:59:45.165Z,33
2022-08-28T13:00:51.546Z,33
2022-08-28T13:01:58.068Z,33
2022-08-28T13:03:04.623Z,33.5
2022-08-28T13:04:11.107Z,36.5
2022-08-28T13:05:17.647Z,38
2022-08-28T13:06:24.164Z,39
2022-08-28T13:07:30.697Z,41
2022-08-28T13:08:37.233Z,41.5
2022-08-28T13:09:43.770Z,41.5
2022-08-28T13:10:50.259Z,42
2022-08-28T13:11:56.819Z,43
2022-08-28T13:13:03.303Z,41
2022-08-28T13:14:09.870Z,42.5
2022-08-28T13:15:16.371Z,99.5
2022-08-28T13:16:48.986Z,43
2022-08-28T13:17:55.783Z,0
2022-08-28T13:19:02.562Z,0
2022-08-28T13:20:09.325Z,42.5
2022-08-28T13:21:16.086Z,43
2022-08-28T13:22:22.909Z,0
2022-08-28T13:23:29.670Z,0
2022-08-28T13:24:36.387Z,37.5
2022-08-28T13:25:43.206Z,36
2022-08-28T13:26:49.904Z,0
2022-08-28T13:27:56.713Z,34.5
2022-08-28T13:29:03.466Z,34.5
2022-08-28T13:30:10.215Z,0
2022-08-28T13:33:28.354Z,32
2022-08-28T13:35:07.081Z,0
2022-08-28T13:36:45.836Z,0
2022-08-28T13:37:53.094Z,32.5
2022-08-28T13:39:00.326Z,33
2022-08-28T13:40:39.039Z,0
2022-08-28T13:42:16.926Z,33
2022-08-28T13:43:23.328Z,32.5
2022-08-28T13:44:29.687Z,32.5
2022-08-28T13:45:36.097Z,32.5
2022-08-28T13:46:42.475Z,0
2022-08-28T13:47:48.903Z,31.5
2022-08-28T13:48:55.304Z,32
2022-08-28T13:50:01.696Z,32.5
2022-08-28T13:51:08.122Z,32.5
2022-08-28T13:52:14.531Z,32.5
2022-08-28T13:53:20.931Z,33.5
2022-08-28T13:54:27.383Z,32
2022-08-28T13:55:33.799Z,33
2022-08-28T13:56:40.213Z,32.5
2022-08-28T13:57:46.634Z,0
2022-08-28T13:58:53.015Z,33
2022-08-28T13:59:59.368Z,0
2022-08-28T14:01:05.758Z,33
2022-08-28T14:02:12.158Z,33
2022-08-28T14:03:18.584Z,32
2022-08-28T14:04:25.000Z,33.5
2022-08-28T14:05:31.403Z,33
2022-08-28T14:06:37.815Z,0
2022-08-28T14:07:44.223Z,33.5
2022-08-28T14:08:50.617Z,33
2022-08-28T14:09:57.139Z,33
2022-08-28T14:11:03.643Z,0
2022-08-28T14:12:10.187Z,34
2022-08-28T14:13:16.701Z,0
2022-08-28T14:14:23.234Z,36
2022-08-28T14:15:29.773Z,38
2022-08-28T14:16:36.278Z,39
2022-08-28T14:17:42.750Z,0
2022-08-28T14:18:49.306Z,0
2022-08-28T14:19:55.803Z,0
2022-08-28T14:21:02.320Z,0
2022-08-28T14:22:08.875Z,40
2022-08-28T14:23:15.388Z,0
2022-08-28T14:24:48.993Z,0
2022-08-28T14:25:55.757Z,0
2022-08-28T14:27:02.527Z,0
2022-08-28T14:28:09.302Z,0
2022-08-28T14:29:16.105Z,42.5
2022-08-28T14:30:22.873Z,0
2022-08-28T14:31:29.635Z,0
2022-08-28T14:32:36.437Z,43
2022-08-28T14:33:43.221Z,0
2022-08-28T14:34:49.996Z,0
2022-08-28T14:35:56.782Z,43.5
2022-08-28T14:37:03.537Z,99.5
2022-08-28T14:38:10.295Z,41.5
2022-08-28T14:41:28.439Z,41.5
2022-08-28T14:43:07.164Z,99.5
2022-08-28T14:44:45.916Z,44.5
2022-08-28T14:45:53.180Z,43.5
2022-08-28T14:47:00.420Z,42.5
2022-08-28T14:48:39.172Z,43
2022-08-28T14:50:17.897Z,43
2022-08-28T14:51:56.618Z,43.5
2022-08-28T14:53:35.361Z,0
2022-08-28T14:55:14.078Z,42.5
2022-08-28T14:56:52.781Z,44
2022-08-28T14:58:31.477Z,0
2022-08-28T15:00:10.231Z,43
2022-08-28T15:02:21.209Z,0
2022-08-28T15:04:18.249Z,43.5
2022-08-28T15:07:35.691Z,42.5
2022-08-28T15:10:51.242Z,99.5
2022-08-28T15:11:57.626Z,0
2022-08-28T15:13:04.074Z,0
2022-08-28T15:14:10.532Z,0
2022-08-28T15:15:16.907Z,0
2022-08-28T15:16:23.316Z,40.5
2022-08-28T15:17:29.688Z,0
2022-08-28T15:18:36.086Z,40
2022-08-28T15:19:42.540Z,0
2022-08-28T15:20:48.898Z,99.5
2022-08-28T15:21:55.338Z,0
2022-08-28T15:23:01.737Z,0
2022-08-28T15:24:08.134Z,0
2022-08-28T15:25:14.543Z,38
2022-08-28T15:26:20.972Z,0
2022-08-28T15:27:27.378Z,37.5
2022-08-28T15:28:33.801Z,0
2022-08-28T15:29:40.179Z,36
2022-08-28T15:30:46.560Z,36.5
2022-08-28T15:31:52.950Z,0
2022-08-28T15:32:59.364Z,37.5
2022-08-28T15:34:05.776Z,37.5
2022-08-28T15:35:12.201Z,37
2022-08-28T15:37:24.991Z,37
2022-08-28T15:38:31.517Z,37
2022-08-28T15:39:38.041Z,36
2022-08-28T15:40:44.543Z,36.5
2022-08-28T15:41:51.070Z,35.5
2022-08-28T15:42:57.605Z,35.5
2022-08-28T15:44:04.135Z,34.5
2022-08-28T15:45:10.641Z,35.5
2022-08-28T15:46:17.135Z,35
2022-08-28T15:47:23.621Z,0
2022-08-28T15:48:30.153Z,0
2022-08-28T15:49:36.713Z,36
2022-08-28T15:50:43.245Z,36
2022-08-28T15:51:49.778Z,37
2022-08-28T15:53:39.042Z,36.5
2022-08-28T15:54:45.803Z,35.5
2022-08-28T15:55:52.574Z,0
2022-08-28T15:56:59.320Z,36.5
2022-08-28T15:58:06.104Z,37
2022-08-28T15:59:12.871Z,36.5
2022-08-28T16:00:19.648Z,36.5
2022-08-28T16:01:26.372Z,37.5
2022-08-28T16:02:33.135Z,38
2022-08-28T16:03:39.883Z,37
2022-08-28T16:04:46.684Z,37
2022-08-28T16:05:53.411Z,37.5
2022-08-28T16:07:00.196Z,37.5
2022-08-28T16:10:18.363Z,0
2022-08-28T16:11:57.070Z,39
2022-08-28T16:13:04.336Z,39
2022-08-28T16:14:11.581Z,39
2022-08-28T16:15:50.318Z,38.5
2022-08-28T16:17:29.076Z,39
2022-08-28T16:19:06.927Z,0
2022-08-28T16:20:13.344Z,0
2022-08-28T16:21:19.811Z,0
2022-08-28T16:22:26.218Z,0
2022-08-28T16:23:32.623Z,41.5
2022-08-28T16:24:39.029Z,40.5
2022-08-28T16:25:45.485Z,0
2022-08-28T16:26:51.882Z,41.5
2022-08-28T16:27:58.306Z,99.5
2022-08-28T16:29:04.710Z,43
2022-08-28T16:30:11.159Z,0
2022-08-28T16:31:17.560Z,0
2022-08-28T16:32:24.014Z,0
2022-08-28T16:33:30.416Z,0
2022-08-28T16:34:36.814Z,0
2022-08-28T16:35:43.161Z,0
2022-08-28T16:36:49.552Z,0
2022-08-28T16:37:55.959Z,0
2022-08-28T16:39:02.386Z,0
2022-08-28T16:40:08.801Z,0
2022-08-28T16:42:21.658Z,0
2022-08-28T16:43:28.090Z,0
2022-08-28T16:44:34.517Z,0
2022-08-28T16:45:40.938Z,0
2022-08-28T16:46:47.446Z,0
2022-08-28T16:47:53.943Z,0
2022-08-28T16:49:00.497Z,0
2022-08-28T16:50:07.020Z,0
2022-08-28T16:51:13.567Z,0
2022-08-28T16:52:20.117Z,0
2022-08-28T16:53:26.658Z,0
2022-08-28T16:54:33.163Z,0
2022-08-28T16:55:39.659Z,47.5
2022-08-28T16:56:46.188Z,47.5
2022-08-28T16:57:52.741Z,0
2022-08-28T16:58:59.279Z,0
2022-08-28T17:00:05.775Z,0
2022-08-28T17:01:55.135Z,0
2022-08-28T17:03:01.864Z,0
2022-08-28T17:04:08.670Z,0
2022-08-28T17:05:15.448Z,0
2022-08-28T17:06:22.231Z,0
2022-08-28T17:07:28.960Z,0
2022-08-28T17:08:35.705Z,0
2022-08-28T17:09:42.451Z,0
2022-08-28T17:10:49.183Z,0
2022-08-28T17:11:55.966Z,49.5
2022-08-28T17:13:02.692Z,0
2022-08-28T17:14:09.467Z,0
2022-08-28T17:15:16.267Z,0
2022-08-28T17:18:34.393Z,0
2022-08-28T17:20:13.111Z,0
2022-08-28T17:21:20.375Z,0
2022-08-28T17:22:27.628Z,0
2022-08-28T17:24:06.374Z,0
2022-08-28T17:25:45.098Z,0
2022-08-28T17:27:23.798Z,0
2022-08-28T17:29:02.494Z,0
2022-08-28T17:30:41.203Z,0
2022-08-28T17:32:19.937Z,0
2022-08-28T17:33:58.682Z,0
2022-08-28T17:35:37.441Z,0
2022-08-28T17:37:16.163Z,0
2022-08-28T17:38:55.875Z,0
2022-08-28T17:42:13.325Z,0
2022-08-28T17:45:30.731Z,0
2022-08-28T17:48:48.133Z,0
2022-08-28T17:52:03.725Z,99.5
2022-08-28T17:53:10.084Z,0
2022-08-28T17:54:16.446Z,0
2022-08-28T17:55:22.802Z,0
2022-08-28T17:56:29.168Z,0
2022-08-28T17:57:35.537Z,0
2022-08-28T17:58:41.896Z,0
2022-08-28T17:59:48.255Z,0
2022-08-28T18:00:54.607Z,0